sensor_id;sensor_type;location;lat;lon;timestamp;P1;durP1;ratioP1;P2;durP2;ratioP2
23720;SDS011;42950;52.134;5.578;2022-07-29T00:00:42;2.72;;;1.00;;
23720;SDS011;42950;52.134;5.578;2022-07-29T00:03:11;2.90;;;1.38;;
23720;SDS011;42950;52.134;5.578;2022-07-29T00:05:39;2.13;;;1.00;;
23720;SDS011;42950;52.134;5.578;2022-07-29T00:08:06;4.80;;;1.25;;
23720;SDS011;42950;52.134;5.578;2022-07-29T00:10:34;3.47;;;1.02;;
23720;SDS011;42950;52.134;5.578;2022-07-29T00:13:00;4.85;;;1.00;;
23720;SDS011;42950;52.134;5.578;2022-07-29T00:15:26;4.53;;;1.10;;
23720;SDS011;42950;52.134;5.578;2022-07-29T00:17:53;2.97;;;1.27;;
23720;SDS011;42950;52.134;5.578;2022-07-29T00:20:20;5.30;;;1.35;;
23720;SDS011;42950;52.134;5.578;2022-07-29T00:22:46;2.90;;;1.55;;
23720;SDS011;42950;52.134;5.578;2022-07-29T00:25:11;4.93;;;1.38;;
23720;SDS011;42950;52.134;5.578;2022-07-29T00:27:38;2.38;;;1.05;;
23720;SDS011;42950;52.134;5.578;2022-07-29T00:30:05;3.03;;;1.45;;
23720;SDS011;42950;52.134;5.578;2022-07-29T00:32:32;2.92;;;1.13;;
23720;SDS011;42950;52.134;5.578;2022-07-29T00:34:57;6.15;;;1.40;;
23720;SDS011;42950;52.134;5.578;2022-07-29T00:37:44;3.58;;;1.20;;
23720;SDS011;42950;52.134;5.578;2022-07-29T00:40:10;3.35;;;1.30;;
23720;SDS011;42950;52.134;5.578;2022-07-29T00:42:42;4.63;;;1.13;;
23720;SDS011;42950;52.134;5.578;2022-07-29T00:45:09;3.97;;;1.30;;
23720;SDS011;42950;52.134;5.578;2022-07-29T00:47:34;2.65;;;1.35;;
23720;SDS011;42950;52.134;5.578;2022-07-29T00:50:00;3.40;;;1.20;;
23720;SDS011;42950;52.134;5.578;2022-07-29T00:52:26;5.13;;;1.30;;
23720;SDS011;42950;52.134;5.578;2022-07-29T00:54:52;4.10;;;1.00;;
23720;SDS011;42950;52.134;5.578;2022-07-29T00:57:17;4.50;;;1.55;;
23720;SDS011;42950;52.134;5.578;2022-07-29T00:59:44;2.97;;;1.20;;
23720;SDS011;42950;52.134;5.578;2022-07-29T01:02:10;3.10;;;1.45;;
23720;SDS011;42950;52.134;5.578;2022-07-29T01:04:36;4.43;;;1.30;;
23720;SDS011;42950;52.134;5.578;2022-07-29T01:07:02;3.45;;;1.30;;
23720;SDS011;42950;52.134;5.578;2022-07-29T01:09:29;2.95;;;1.30;;
23720;SDS011;42950;52.134;5.578;2022-07-29T01:11:58;3.42;;;1.23;;
23720;SDS011;42950;52.134;5.578;2022-07-29T01:14:25;2.47;;;1.23;;
23720;SDS011;42950;52.134;5.578;2022-07-29T01:16:54;1.52;;;1.13;;
23720;SDS011;42950;52.134;5.578;2022-07-29T01:22:10;3.05;;;1.52;;
23720;SDS011;42950;52.134;5.578;2022-07-29T01:25:17;4.88;;;1.38;;
23720;SDS011;42950;52.134;5.578;2022-07-29T01:30:26;4.72;;;1.40;;
23720;SDS011;42950;52.134;5.578;2022-07-29T01:32:56;2.20;;;1.30;;
23720;SDS011;42950;52.134;5.578;2022-07-29T01:35:33;3.40;;;1.33;;
23720;SDS011;42950;52.134;5.578;2022-07-29T01:38:12;2.38;;;1.33;;
23720;SDS011;42950;52.134;5.578;2022-07-29T01:40:47;6.15;;;1.58;;
23720;SDS011;42950;52.134;5.578;2022-07-29T01:43:17;7.68;;;1.73;;
23720;SDS011;42950;52.134;5.578;2022-07-29T01:46:02;3.40;;;1.90;;
23720;SDS011;42950;52.134;5.578;2022-07-29T01:48:40;1.90;;;1.50;;
23720;SDS011;42950;52.134;5.578;2022-07-29T01:51:29;4.65;;;1.55;;
23720;SDS011;42950;52.134;5.578;2022-07-29T01:56:45;3.47;;;1.50;;
23720;SDS011;42950;52.134;5.578;2022-07-29T01:59:14;2.65;;;1.75;;
23720;SDS011;42950;52.134;5.578;2022-07-29T02:01:43;2.15;;;1.70;;
23720;SDS011;42950;52.134;5.578;2022-07-29T02:04:12;4.18;;;1.70;;
23720;SDS011;42950;52.134;5.578;2022-07-29T02:06:40;4.25;;;1.90;;
23720;SDS011;42950;52.134;5.578;2022-07-29T02:09:08;3.05;;;1.70;;
23720;SDS011;42950;52.134;5.578;2022-07-29T02:11:36;5.07;;;1.60;;
23720;SDS011;42950;52.134;5.578;2022-07-29T02:14:05;2.45;;;1.48;;
23720;SDS011;42950;52.134;5.578;2022-07-29T02:16:33;3.83;;;1.60;;
23720;SDS011;42950;52.134;5.578;2022-07-29T02:19:02;2.97;;;1.73;;
23720;SDS011;42950;52.134;5.578;2022-07-29T02:21:30;6.00;;;1.90;;
23720;SDS011;42950;52.134;5.578;2022-07-29T02:23:59;2.92;;;1.50;;
23720;SDS011;42950;52.134;5.578;2022-07-29T02:26:27;2.65;;;1.50;;
23720;SDS011;42950;52.134;5.578;2022-07-29T02:28:55;2.47;;;1.70;;
23720;SDS011;42950;52.134;5.578;2022-07-29T02:31:24;2.55;;;1.52;;
23720;SDS011;42950;52.134;5.578;2022-07-29T02:33:53;2.97;;;1.75;;
23720;SDS011;42950;52.134;5.578;2022-07-29T02:36:22;2.17;;;1.40;;
23720;SDS011;42950;52.134;5.578;2022-07-29T02:38:49;3.60;;;1.70;;
23720;SDS011;42950;52.134;5.578;2022-07-29T02:41:20;2.42;;;1.73;;
23720;SDS011;42950;52.134;5.578;2022-07-29T02:43:53;5.72;;;2.20;;
23720;SDS011;42950;52.134;5.578;2022-07-29T02:46:25;3.13;;;1.70;;
23720;SDS011;42950;52.134;5.578;2022-07-29T02:49:04;6.82;;;1.67;;
23720;SDS011;42950;52.134;5.578;2022-07-29T02:51:40;2.70;;;1.83;;
23720;SDS011;42950;52.134;5.578;2022-07-29T02:54:08;2.70;;;1.45;;
23720;SDS011;42950;52.134;5.578;2022-07-29T02:56:40;3.85;;;1.90;;
23720;SDS011;42950;52.134;5.578;2022-07-29T02:59:10;3.25;;;1.83;;
23720;SDS011;42950;52.134;5.578;2022-07-29T03:01:39;4.28;;;1.85;;
23720;SDS011;42950;52.134;5.578;2022-07-29T03:04:08;3.95;;;1.50;;
23720;SDS011;42950;52.134;5.578;2022-07-29T03:06:36;2.03;;;1.80;;
23720;SDS011;42950;52.134;5.578;2022-07-29T03:09:03;6.97;;;2.10;;
23720;SDS011;42950;52.134;5.578;2022-07-29T03:11:31;3.75;;;1.90;;
23720;SDS011;42950;52.134;5.578;2022-07-29T03:13:59;2.97;;;1.67;;
23720;SDS011;42950;52.134;5.578;2022-07-29T03:16:26;3.15;;;1.65;;
23720;SDS011;42950;52.134;5.578;2022-07-29T03:18:53;3.53;;;2.00;;
23720;SDS011;42950;52.134;5.578;2022-07-29T03:21:19;3.53;;;1.55;;
23720;SDS011;42950;52.134;5.578;2022-07-29T03:23:46;3.17;;;1.60;;
23720;SDS011;42950;52.134;5.578;2022-07-29T03:26:12;3.03;;;1.70;;
23720;SDS011;42950;52.134;5.578;2022-07-29T03:28:38;5.38;;;1.85;;
23720;SDS011;42950;52.134;5.578;2022-07-29T03:31:03;5.60;;;1.90;;
23720;SDS011;42950;52.134;5.578;2022-07-29T03:33:30;3.63;;;1.40;;
23720;SDS011;42950;52.134;5.578;2022-07-29T03:35:56;2.60;;;1.88;;
23720;SDS011;42950;52.134;5.578;2022-07-29T03:38:23;6.50;;;1.58;;
23720;SDS011;42950;52.134;5.578;2022-07-29T03:40:53;7.45;;;1.75;;
23720;SDS011;42950;52.134;5.578;2022-07-29T03:43:21;3.58;;;1.85;;
23720;SDS011;42950;52.134;5.578;2022-07-29T03:45:49;2.47;;;1.80;;
23720;SDS011;42950;52.134;5.578;2022-07-29T03:48:19;4.22;;;1.90;;
23720;SDS011;42950;52.134;5.578;2022-07-29T03:50:46;2.00;;;1.80;;
23720;SDS011;42950;52.134;5.578;2022-07-29T03:53:12;5.38;;;1.77;;
23720;SDS011;42950;52.134;5.578;2022-07-29T03:55:42;4.57;;;1.67;;
23720;SDS011;42950;52.134;5.578;2022-07-29T03:58:10;3.72;;;1.92;;
23720;SDS011;42950;52.134;5.578;2022-07-29T04:00:38;2.67;;;1.67;;
23720;SDS011;42950;52.134;5.578;2022-07-29T04:03:06;4.72;;;1.70;;
23720;SDS011;42950;52.134;5.578;2022-07-29T04:05:34;2.78;;;1.58;;
23720;SDS011;42950;52.134;5.578;2022-07-29T04:08:00;3.45;;;1.52;;
23720;SDS011;42950;52.134;5.578;2022-07-29T04:10:25;4.03;;;1.50;;
23720;SDS011;42950;52.134;5.578;2022-07-29T04:12:51;4.13;;;1.70;;
23720;SDS011;42950;52.134;5.578;2022-07-29T04:15:17;2.83;;;1.60;;
23720;SDS011;42950;52.134;5.578;2022-07-29T04:17:44;3.53;;;1.60;;
23720;SDS011;42950;52.134;5.578;2022-07-29T04:20:12;4.28;;;1.63;;
23720;SDS011;42950;52.134;5.578;2022-07-29T04:22:41;3.35;;;1.60;;
23720;SDS011;42950;52.134;5.578;2022-07-29T04:25:06;1.60;;;1.30;;
23720;SDS011;42950;52.134;5.578;2022-07-29T04:27:32;5.47;;;1.38;;
23720;SDS011;42950;52.134;5.578;2022-07-29T04:29:59;4.35;;;1.73;;
23720;SDS011;42950;52.134;5.578;2022-07-29T04:32:25;4.18;;;2.10;;
23720;SDS011;42950;52.134;5.578;2022-07-29T04:34:51;3.75;;;1.40;;
23720;SDS011;42950;52.134;5.578;2022-07-29T04:37:17;1.30;;;1.20;;
23720;SDS011;42950;52.134;5.578;2022-07-29T04:39:44;4.03;;;1.80;;
23720;SDS011;42950;52.134;5.578;2022-07-29T04:42:10;2.75;;;1.70;;
23720;SDS011;42950;52.134;5.578;2022-07-29T04:44:35;3.20;;;1.40;;
23720;SDS011;42950;52.134;5.578;2022-07-29T04:47:01;3.35;;;1.65;;
23720;SDS011;42950;52.134;5.578;2022-07-29T04:49:27;6.72;;;1.60;;
23720;SDS011;42950;52.134;5.578;2022-07-29T04:51:52;3.60;;;1.67;;
23720;SDS011;42950;52.134;5.578;2022-07-29T04:54:18;5.55;;;1.70;;
23720;SDS011;42950;52.134;5.578;2022-07-29T04:56:44;3.97;;;1.52;;
23720;SDS011;42950;52.134;5.578;2022-07-29T04:59:11;5.30;;;1.60;;
23720;SDS011;42950;52.134;5.578;2022-07-29T05:01:37;5.95;;;1.67;;
23720;SDS011;42950;52.134;5.578;2022-07-29T05:04:03;4.55;;;1.88;;
23720;SDS011;42950;52.134;5.578;2022-07-29T05:06:28;5.15;;;1.90;;
23720;SDS011;42950;52.134;5.578;2022-07-29T05:08:54;4.32;;;1.67;;
23720;SDS011;42950;52.134;5.578;2022-07-29T05:11:20;5.10;;;1.58;;
23720;SDS011;42950;52.134;5.578;2022-07-29T05:13:45;4.93;;;1.83;;
23720;SDS011;42950;52.134;5.578;2022-07-29T05:16:11;4.57;;;1.80;;
23720;SDS011;42950;52.134;5.578;2022-07-29T05:18:38;3.33;;;1.73;;
23720;SDS011;42950;52.134;5.578;2022-07-29T05:21:04;4.22;;;1.63;;
23720;SDS011;42950;52.134;5.578;2022-07-29T05:23:30;3.67;;;1.63;;
23720;SDS011;42950;52.134;5.578;2022-07-29T05:25:56;3.42;;;1.88;;
23720;SDS011;42950;52.134;5.578;2022-07-29T05:28:21;2.40;;;2.00;;
23720;SDS011;42950;52.134;5.578;2022-07-29T05:30:48;4.07;;;1.50;;
23720;SDS011;42950;52.134;5.578;2022-07-29T05:33:14;5.03;;;1.95;;
23720;SDS011;42950;52.134;5.578;2022-07-29T05:35:40;2.20;;;1.70;;
23720;SDS011;42950;52.134;5.578;2022-07-29T05:38:06;4.00;;;1.70;;
23720;SDS011;42950;52.134;5.578;2022-07-29T05:40:31;5.78;;;1.92;;
23720;SDS011;42950;52.134;5.578;2022-07-29T05:42:57;2.75;;;1.73;;
23720;SDS011;42950;52.134;5.578;2022-07-29T05:45:23;3.92;;;2.05;;
23720;SDS011;42950;52.134;5.578;2022-07-29T05:47:55;3.75;;;2.10;;
23720;SDS011;42950;52.134;5.578;2022-07-29T05:50:22;4.90;;;1.75;;
23720;SDS011;42950;52.134;5.578;2022-07-29T05:52:47;3.60;;;1.77;;
23720;SDS011;42950;52.134;5.578;2022-07-29T05:55:13;3.38;;;1.77;;
23720;SDS011;42950;52.134;5.578;2022-07-29T05:57:39;4.72;;;2.25;;
23720;SDS011;42950;52.134;5.578;2022-07-29T06:00:05;3.60;;;2.03;;
23720;SDS011;42950;52.134;5.578;2022-07-29T06:02:31;5.53;;;1.90;;
23720;SDS011;42950;52.134;5.578;2022-07-29T06:04:57;3.13;;;2.15;;
23720;SDS011;42950;52.134;5.578;2022-07-29T06:07:23;4.53;;;2.00;;
23720;SDS011;42950;52.134;5.578;2022-07-29T06:09:49;3.45;;;1.90;;
23720;SDS011;42950;52.134;5.578;2022-07-29T06:12:14;3.78;;;2.05;;
23720;SDS011;42950;52.134;5.578;2022-07-29T06:14:40;3.67;;;1.85;;
23720;SDS011;42950;52.134;5.578;2022-07-29T06:17:05;3.05;;;1.80;;
23720;SDS011;42950;52.134;5.578;2022-07-29T06:19:33;4.55;;;1.65;;
23720;SDS011;42950;52.134;5.578;2022-07-29T06:21:59;1.75;;;1.58;;
23720;SDS011;42950;52.134;5.578;2022-07-29T06:24:25;6.00;;;2.20;;
23720;SDS011;42950;52.134;5.578;2022-07-29T06:26:51;2.65;;;2.13;;
23720;SDS011;42950;52.134;5.578;2022-07-29T06:29:16;3.53;;;2.15;;
23720;SDS011;42950;52.134;5.578;2022-07-29T06:31:42;2.65;;;1.95;;
23720;SDS011;42950;52.134;5.578;2022-07-29T06:34:08;3.03;;;1.77;;
23720;SDS011;42950;52.134;5.578;2022-07-29T06:36:35;2.72;;;2.30;;
23720;SDS011;42950;52.134;5.578;2022-07-29T06:39:01;5.93;;;2.03;;
23720;SDS011;42950;52.134;5.578;2022-07-29T06:41:28;3.90;;;1.85;;
23720;SDS011;42950;52.134;5.578;2022-07-29T06:43:54;4.15;;;2.20;;
23720;SDS011;42950;52.134;5.578;2022-07-29T06:46:20;7.40;;;1.92;;
23720;SDS011;42950;52.134;5.578;2022-07-29T06:48:46;6.35;;;2.30;;
23720;SDS011;42950;52.134;5.578;2022-07-29T06:51:12;5.43;;;2.05;;
23720;SDS011;42950;52.134;5.578;2022-07-29T06:53:38;3.72;;;2.15;;
23720;SDS011;42950;52.134;5.578;2022-07-29T06:56:05;7.18;;;2.53;;
23720;SDS011;42950;52.134;5.578;2022-07-29T06:58:33;5.60;;;2.50;;
23720;SDS011;42950;52.134;5.578;2022-07-29T07:01:01;7.75;;;2.78;;
23720;SDS011;42950;52.134;5.578;2022-07-29T07:03:28;11.75;;;2.38;;
23720;SDS011;42950;52.134;5.578;2022-07-29T07:05:54;5.63;;;2.42;;
23720;SDS011;42950;52.134;5.578;2022-07-29T07:08:20;8.57;;;2.65;;
23720;SDS011;42950;52.134;5.578;2022-07-29T07:10:47;5.30;;;2.17;;
23720;SDS011;42950;52.134;5.578;2022-07-29T07:13:12;4.90;;;2.20;;
23720;SDS011;42950;52.134;5.578;2022-07-29T07:15:39;3.55;;;2.22;;
23720;SDS011;42950;52.134;5.578;2022-07-29T07:18:05;2.80;;;2.03;;
23720;SDS011;42950;52.134;5.578;2022-07-29T07:20:32;3.42;;;2.50;;
23720;SDS011;42950;52.134;5.578;2022-07-29T07:22:58;5.90;;;2.30;;
23720;SDS011;42950;52.134;5.578;2022-07-29T07:25:24;3.22;;;2.28;;
23720;SDS011;42950;52.134;5.578;2022-07-29T07:27:49;3.85;;;2.08;;
23720;SDS011;42950;52.134;5.578;2022-07-29T07:30:15;6.10;;;2.28;;
23720;SDS011;42950;52.134;5.578;2022-07-29T07:32:41;7.40;;;2.63;;
23720;SDS011;42950;52.134;5.578;2022-07-29T07:35:07;5.00;;;2.40;;
23720;SDS011;42950;52.134;5.578;2022-07-29T07:37:34;2.97;;;2.40;;
23720;SDS011;42950;52.134;5.578;2022-07-29T07:40:00;2.75;;;2.20;;
23720;SDS011;42950;52.134;5.578;2022-07-29T07:42:26;3.75;;;2.50;;
23720;SDS011;42950;52.134;5.578;2022-07-29T07:44:51;5.80;;;2.03;;
23720;SDS011;42950;52.134;5.578;2022-07-29T07:47:17;5.32;;;2.80;;
23720;SDS011;42950;52.134;5.578;2022-07-29T07:49:48;5.13;;;2.47;;
23720;SDS011;42950;52.134;5.578;2022-07-29T07:52:15;6.47;;;2.28;;
23720;SDS011;42950;52.134;5.578;2022-07-29T07:54:43;5.95;;;2.30;;
23720;SDS011;42950;52.134;5.578;2022-07-29T07:57:09;4.82;;;2.38;;
23720;SDS011;42950;52.134;5.578;2022-07-29T07:59:36;6.97;;;2.20;;
23720;SDS011;42950;52.134;5.578;2022-07-29T08:02:04;3.75;;;2.10;;
23720;SDS011;42950;52.134;5.578;2022-07-29T08:04:30;3.65;;;2.35;;
23720;SDS011;42950;52.134;5.578;2022-07-29T08:06:56;4.75;;;2.67;;
23720;SDS011;42950;52.134;5.578;2022-07-29T08:09:23;5.28;;;2.50;;
23720;SDS011;42950;52.134;5.578;2022-07-29T08:11:49;3.55;;;2.33;;
23720;SDS011;42950;52.134;5.578;2022-07-29T08:14:15;3.90;;;2.13;;
23720;SDS011;42950;52.134;5.578;2022-07-29T08:16:41;3.95;;;1.90;;
23720;SDS011;42950;52.134;5.578;2022-07-29T08:19:08;8.20;;;2.20;;
23720;SDS011;42950;52.134;5.578;2022-07-29T08:21:34;3.20;;;1.88;;
23720;SDS011;42950;52.134;5.578;2022-07-29T08:24:00;7.28;;;2.30;;
23720;SDS011;42950;52.134;5.578;2022-07-29T08:26:44;6.50;;;2.28;;
23720;SDS011;42950;52.134;5.578;2022-07-29T08:29:10;5.35;;;2.10;;
23720;SDS011;42950;52.134;5.578;2022-07-29T08:31:36;5.57;;;2.00;;
23720;SDS011;42950;52.134;5.578;2022-07-29T08:34:02;4.30;;;2.22;;
23720;SDS011;42950;52.134;5.578;2022-07-29T08:36:29;5.18;;;1.90;;
23720;SDS011;42950;52.134;5.578;2022-07-29T08:38:55;9.73;;;2.35;;
23720;SDS011;42950;52.134;5.578;2022-07-29T08:41:21;6.10;;;2.00;;
23720;SDS011;42950;52.134;5.578;2022-07-29T08:43:48;5.97;;;2.10;;
23720;SDS011;42950;52.134;5.578;2022-07-29T08:46:14;2.70;;;1.70;;
23720;SDS011;42950;52.134;5.578;2022-07-29T08:48:43;8.20;;;2.10;;
23720;SDS011;42950;52.134;5.578;2022-07-29T08:51:12;4.45;;;2.10;;
23720;SDS011;42950;52.134;5.578;2022-07-29T08:53:40;4.45;;;2.22;;
23720;SDS011;42950;52.134;5.578;2022-07-29T08:56:11;6.80;;;2.40;;
23720;SDS011;42950;52.134;5.578;2022-07-29T08:58:38;3.28;;;1.67;;
23720;SDS011;42950;52.134;5.578;2022-07-29T09:01:05;9.52;;;2.40;;
23720;SDS011;42950;52.134;5.578;2022-07-29T09:03:32;5.93;;;2.28;;
23720;SDS011;42950;52.134;5.578;2022-07-29T09:06:01;12.10;;;2.88;;
23720;SDS011;42950;52.134;5.578;2022-07-29T09:08:31;5.55;;;2.63;;
23720;SDS011;42950;52.134;5.578;2022-07-29T09:10:57;3.95;;;2.28;;
23720;SDS011;42950;52.134;5.578;2022-07-29T09:13:25;6.10;;;2.58;;
23720;SDS011;42950;52.134;5.578;2022-07-29T09:15:51;6.32;;;2.13;;
23720;SDS011;42950;52.134;5.578;2022-07-29T09:18:32;4.82;;;2.13;;
23720;SDS011;42950;52.134;5.578;2022-07-29T09:20:58;5.68;;;2.05;;
23720;SDS011;42950;52.134;5.578;2022-07-29T09:26:39;5.78;;;1.83;;
23720;SDS011;42950;52.134;5.578;2022-07-29T09:31:39;9.73;;;2.63;;
23720;SDS011;42950;52.134;5.578;2022-07-29T09:34:06;6.65;;;2.25;;
23720;SDS011;42950;52.134;5.578;2022-07-29T09:36:41;9.02;;;2.47;;
23720;SDS011;42950;52.134;5.578;2022-07-29T09:39:15;4.15;;;2.28;;
23720;SDS011;42950;52.134;5.578;2022-07-29T09:41:52;6.38;;;2.00;;
23720;SDS011;42950;52.134;5.578;2022-07-29T09:44:19;3.65;;;2.10;;
23720;SDS011;42950;52.134;5.578;2022-07-29T09:49:30;6.68;;;2.20;;
23720;SDS011;42950;52.134;5.578;2022-07-29T09:54:30;4.90;;;2.00;;
23720;SDS011;42950;52.134;5.578;2022-07-29T09:57:02;4.50;;;2.38;;
23720;SDS011;42950;52.134;5.578;2022-07-29T09:59:34;7.35;;;2.50;;
23720;SDS011;42950;52.134;5.578;2022-07-29T10:01:59;4.80;;;2.40;;
23720;SDS011;42950;52.134;5.578;2022-07-29T10:04:38;5.38;;;2.50;;
23720;SDS011;42950;52.134;5.578;2022-07-29T10:07:04;8.68;;;2.85;;
23720;SDS011;42950;52.134;5.578;2022-07-29T10:09:30;4.60;;;2.20;;
23720;SDS011;42950;52.134;5.578;2022-07-29T10:12:07;6.25;;;2.45;;
23720;SDS011;42950;52.134;5.578;2022-07-29T10:14:39;7.47;;;2.60;;
23720;SDS011;42950;52.134;5.578;2022-07-29T10:17:06;5.38;;;2.20;;
23720;SDS011;42950;52.134;5.578;2022-07-29T10:19:33;5.05;;;2.28;;
23720;SDS011;42950;52.134;5.578;2022-07-29T10:22:01;5.55;;;2.17;;
23720;SDS011;42950;52.134;5.578;2022-07-29T10:24:29;5.15;;;2.13;;
23720;SDS011;42950;52.134;5.578;2022-07-29T10:26:57;6.75;;;2.60;;
23720;SDS011;42950;52.134;5.578;2022-07-29T10:29:24;6.88;;;2.30;;
23720;SDS011;42950;52.134;5.578;2022-07-29T10:34:43;3.85;;;2.40;;
23720;SDS011;42950;52.134;5.578;2022-07-29T10:37:33;3.25;;;2.15;;
23720;SDS011;42950;52.134;5.578;2022-07-29T10:43:28;6.70;;;2.60;;
23720;SDS011;42950;52.134;5.578;2022-07-29T10:45:58;8.23;;;2.45;;
23720;SDS011;42950;52.134;5.578;2022-07-29T10:48:25;4.68;;;2.65;;
23720;SDS011;42950;52.134;5.578;2022-07-29T10:51:01;6.43;;;2.50;;
23720;SDS011;42950;52.134;5.578;2022-07-29T10:56:24;5.53;;;2.05;;
23720;SDS011;42950;52.134;5.578;2022-07-29T10:59:45;5.22;;;2.78;;
23720;SDS011;42950;52.134;5.578;2022-07-29T11:01:45;6.63;;;2.25;;
23720;SDS011;42950;52.134;5.578;2022-07-29T11:04:12;5.57;;;2.30;;
23720;SDS011;42950;52.134;5.578;2022-07-29T11:09:27;3.58;;;2.20;;
23720;SDS011;42950;52.134;5.578;2022-07-29T11:11:55;7.57;;;2.50;;
23720;SDS011;42950;52.134;5.578;2022-07-29T11:15:07;5.38;;;2.42;;
23720;SDS011;42950;52.134;5.578;2022-07-29T11:17:20;7.28;;;2.55;;
23720;SDS011;42950;52.134;5.578;2022-07-29T11:19:46;5.50;;;2.65;;
23720;SDS011;42950;52.134;5.578;2022-07-29T11:22:30;5.95;;;2.47;;
23720;SDS011;42950;52.134;5.578;2022-07-29T11:27:46;6.80;;;2.60;;
23720;SDS011;42950;52.134;5.578;2022-07-29T11:30:12;6.70;;;2.88;;
23720;SDS011;42950;52.134;5.578;2022-07-29T11:32:40;6.72;;;2.35;;
23720;SDS011;42950;52.134;5.578;2022-07-29T11:35:12;3.60;;;2.47;;
23720;SDS011;42950;52.134;5.578;2022-07-29T11:37:40;6.45;;;2.47;;
23720;SDS011;42950;52.134;5.578;2022-07-29T11:45:02;6.15;;;2.08;;
23720;SDS011;42950;52.134;5.578;2022-07-29T11:47:36;3.50;;;2.22;;
23720;SDS011;42950;52.134;5.578;2022-07-29T11:50:03;5.20;;;2.45;;
23720;SDS011;42950;52.134;5.578;2022-07-29T11:52:32;8.93;;;2.83;;
23720;SDS011;42950;52.134;5.578;2022-07-29T11:55:01;12.10;;;3.00;;
23720;SDS011;42950;52.134;5.578;2022-07-29T11:57:33;9.15;;;2.65;;
23720;SDS011;42950;52.134;5.578;2022-07-29T12:00:00;7.65;;;2.35;;
23720;SDS011;42950;52.134;5.578;2022-07-29T12:02:38;7.85;;;2.60;;
23720;SDS011;42950;52.134;5.578;2022-07-29T12:05:06;5.38;;;2.25;;
23720;SDS011;42950;52.134;5.578;2022-07-29T12:07:33;4.47;;;2.20;;
23720;SDS011;42950;52.134;5.578;2022-07-29T12:09:59;10.27;;;2.65;;
23720;SDS011;42950;52.134;5.578;2022-07-29T12:12:25;7.03;;;2.40;;
23720;SDS011;42950;52.134;5.578;2022-07-29T12:14:51;6.35;;;2.47;;
23720;SDS011;42950;52.134;5.578;2022-07-29T12:17:33;6.63;;;2.42;;
23720;SDS011;42950;52.134;5.578;2022-07-29T12:20:00;9.60;;;3.00;;
23720;SDS011;42950;52.134;5.578;2022-07-29T12:22:32;8.70;;;2.83;;
23720;SDS011;42950;52.134;5.578;2022-07-29T12:25:08;6.30;;;2.97;;
23720;SDS011;42950;52.134;5.578;2022-07-29T12:27:37;5.70;;;2.60;;
23720;SDS011;42950;52.134;5.578;2022-07-29T12:30:04;6.03;;;2.17;;
23720;SDS011;42950;52.134;5.578;2022-07-29T12:32:35;10.20;;;2.15;;
23720;SDS011;42950;52.134;5.578;2022-07-29T12:35:04;7.57;;;2.22;;
23720;SDS011;42950;52.134;5.578;2022-07-29T12:37:32;5.63;;;2.53;;
23720;SDS011;42950;52.134;5.578;2022-07-29T12:40:02;7.45;;;2.35;;
23720;SDS011;42950;52.134;5.578;2022-07-29T12:42:30;9.07;;;2.40;;
23720;SDS011;42950;52.134;5.578;2022-07-29T12:44:56;6.13;;;2.45;;
23720;SDS011;42950;52.134;5.578;2022-07-29T12:47:22;7.55;;;2.65;;
23720;SDS011;42950;52.134;5.578;2022-07-29T12:49:48;4.13;;;2.55;;
23720;SDS011;42950;52.134;5.578;2022-07-29T12:52:27;5.85;;;2.33;;
23720;SDS011;42950;52.134;5.578;2022-07-29T12:54:55;12.98;;;3.38;;
23720;SDS011;42950;52.134;5.578;2022-07-29T12:57:21;9.35;;;2.30;;
23720;SDS011;42950;52.134;5.578;2022-07-29T13:00:06;5.68;;;2.80;;
23720;SDS011;42950;52.134;5.578;2022-07-29T13:02:35;9.13;;;2.67;;
23720;SDS011;42950;52.134;5.578;2022-07-29T13:05:02;5.60;;;2.65;;
23720;SDS011;42950;52.134;5.578;2022-07-29T13:07:29;8.82;;;2.60;;
23720;SDS011;42950;52.134;5.578;2022-07-29T13:10:10;5.32;;;2.70;;
23720;SDS011;42950;52.134;5.578;2022-07-29T13:12:36;7.53;;;3.20;;
23720;SDS011;42950;52.134;5.578;2022-07-29T13:15:12;5.38;;;2.75;;
23720;SDS011;42950;52.134;5.578;2022-07-29T13:17:39;6.43;;;2.75;;
23720;SDS011;42950;52.134;5.578;2022-07-29T13:20:09;4.80;;;2.50;;
23720;SDS011;42950;52.134;5.578;2022-07-29T13:22:40;4.82;;;2.42;;
23720;SDS011;42950;52.134;5.578;2022-07-29T13:25:07;4.90;;;2.50;;
23720;SDS011;42950;52.134;5.578;2022-07-29T13:27:34;6.38;;;2.90;;
23720;SDS011;42950;52.134;5.578;2022-07-29T13:30:03;7.32;;;2.80;;
23720;SDS011;42950;52.134;5.578;2022-07-29T13:32:31;3.72;;;2.25;;
23720;SDS011;42950;52.134;5.578;2022-07-29T13:35:01;5.68;;;2.45;;
23720;SDS011;42950;52.134;5.578;2022-07-29T13:37:32;7.22;;;2.88;;
23720;SDS011;42950;52.134;5.578;2022-07-29T13:40:01;5.32;;;2.65;;
23720;SDS011;42950;52.134;5.578;2022-07-29T13:42:28;4.22;;;2.95;;
23720;SDS011;42950;52.134;5.578;2022-07-29T13:44:54;5.22;;;3.05;;
23720;SDS011;42950;52.134;5.578;2022-07-29T13:47:20;5.40;;;3.00;;
23720;SDS011;42950;52.134;5.578;2022-07-29T13:49:46;5.63;;;2.67;;
23720;SDS011;42950;52.134;5.578;2022-07-29T13:52:13;4.57;;;2.33;;
23720;SDS011;42950;52.134;5.578;2022-07-29T13:54:39;5.03;;;2.75;;
23720;SDS011;42950;52.134;5.578;2022-07-29T13:57:04;6.97;;;2.80;;
23720;SDS011;42950;52.134;5.578;2022-07-29T13:59:30;8.43;;;2.45;;
23720;SDS011;42950;52.134;5.578;2022-07-29T14:01:56;8.20;;;2.40;;
23720;SDS011;42950;52.134;5.578;2022-07-29T14:04:22;4.78;;;2.20;;
23720;SDS011;42950;52.134;5.578;2022-07-29T14:06:51;8.45;;;2.50;;
23720;SDS011;42950;52.134;5.578;2022-07-29T14:09:16;6.50;;;2.25;;
23720;SDS011;42950;52.134;5.578;2022-07-29T14:11:42;8.15;;;2.10;;
23720;SDS011;42950;52.134;5.578;2022-07-29T14:14:08;6.93;;;2.30;;
23720;SDS011;42950;52.134;5.578;2022-07-29T14:16:35;5.28;;;2.50;;
23720;SDS011;42950;52.134;5.578;2022-07-29T14:19:01;9.15;;;2.47;;
23720;SDS011;42950;52.134;5.578;2022-07-29T14:21:27;9.43;;;1.95;;
23720;SDS011;42950;52.134;5.578;2022-07-29T14:23:52;3.92;;;1.90;;
23720;SDS011;42950;52.134;5.578;2022-07-29T14:26:20;6.82;;;2.30;;
23720;SDS011;42950;52.134;5.578;2022-07-29T14:28:48;9.25;;;2.10;;
23720;SDS011;42950;52.134;5.578;2022-07-29T14:31:14;2.35;;;1.50;;
23720;SDS011;42950;52.134;5.578;2022-07-29T14:33:40;6.43;;;1.70;;
23720;SDS011;42950;52.134;5.578;2022-07-29T14:36:06;3.47;;;1.52;;
23720;SDS011;42950;52.134;5.578;2022-07-29T14:38:32;5.53;;;2.00;;
23720;SDS011;42950;52.134;5.578;2022-07-29T14:40:58;3.33;;;1.58;;
23720;SDS011;42950;52.134;5.578;2022-07-29T14:43:24;4.95;;;1.42;;
23720;SDS011;42950;52.134;5.578;2022-07-29T14:45:49;4.50;;;1.70;;
23720;SDS011;42950;52.134;5.578;2022-07-29T14:48:15;4.45;;;1.42;;
23720;SDS011;42950;52.134;5.578;2022-07-29T14:50:40;2.83;;;1.50;;
23720;SDS011;42950;52.134;5.578;2022-07-29T14:53:07;5.55;;;1.60;;
23720;SDS011;42950;52.134;5.578;2022-07-29T14:55:34;5.80;;;1.70;;
23720;SDS011;42950;52.134;5.578;2022-07-29T14:58:00;3.08;;;1.38;;
23720;SDS011;42950;52.134;5.578;2022-07-29T15:00:26;2.67;;;1.33;;
23720;SDS011;42950;52.134;5.578;2022-07-29T15:02:52;4.38;;;1.70;;
23720;SDS011;42950;52.134;5.578;2022-07-29T15:05:18;6.10;;;1.50;;
23720;SDS011;42950;52.134;5.578;2022-07-29T15:07:44;7.55;;;1.98;;
23720;SDS011;42950;52.134;5.578;2022-07-29T15:10:10;4.28;;;1.60;;
23720;SDS011;42950;52.134;5.578;2022-07-29T15:12:36;4.55;;;1.58;;
23720;SDS011;42950;52.134;5.578;2022-07-29T15:15:02;5.45;;;1.58;;
23720;SDS011;42950;52.134;5.578;2022-07-29T15:17:28;6.13;;;1.75;;
23720;SDS011;42950;52.134;5.578;2022-07-29T15:19:54;6.13;;;1.70;;
23720;SDS011;42950;52.134;5.578;2022-07-29T15:22:27;3.53;;;1.50;;
23720;SDS011;42950;52.134;5.578;2022-07-29T15:24:53;5.22;;;1.40;;
23720;SDS011;42950;52.134;5.578;2022-07-29T15:27:19;5.97;;;1.85;;
23720;SDS011;42950;52.134;5.578;2022-07-29T15:29:44;6.53;;;1.85;;
23720;SDS011;42950;52.134;5.578;2022-07-29T15:32:10;8.75;;;1.92;;